sensor_id;sensor_type;location;lat;lon;timestamp;pressure;altitude;pressure_sealevel;temperature;humidity
30343;BME280;17145;49.902;8.680;'2023-07-20 01:58:53';99840;;;20;38
30343;BME280;17145;49.902;8.680;'2023-07-20 02:01:20';99840;;;20;38
30343;BME280;17145;49.902;8.680;'2023-07-20 02:03:48';99840;;;20;38
30343;BME280;17145;49.902;8.680;'2023-07-20 02:06:15';99840;;;20;38
30343;BME280;17145;49.902;8.680;'2023-07-20 02:08:43';99840;;;20;38
30343;BME280;17145;49.902;8.680;'2023-07-20 02:11:10';99840;;;20;38
30343;BME280;17145;49.902;8.680;'2023-07-20 02:13:37';99840;;;20;38
30343;BME280;17145;49.902;8.680;'2023-07-20 02:16:05';99840;;;20;38
30343;BME280;17145;49.902;8.680;'2023-07-20 02:18:33';99840;;;20;38
30343;BME280;17145;49.902;8.680;'2023-07-20 02:21:00';99840;;;20;38
30343;BME280;17145;49.902;8.680;'2023-07-20 02:23:28';99840;;;20;38
30343;BME280;17145;49.902;8.680;'2023-07-20 02:25:55';99840;;;20;38
30343;BME280;17145;49.902;8.680;'2023-07-20 02:28:23';99850;;;20;38
30343;BME280;17145;49.902;8.680;'2023-07-20 02:30:50';99850;;;20;38
30343;BME280;17145;49.902;8.680;'2023-07-20 02:33:18';99850;;;20;38
30343;BME280;17145;49.902;8.680;'2023-07-20 02:35:45';99840;;;20;38
30343;BME280;17145;49.902;8.680;'2023-07-20 02:38:13';99840;;;20;38
30343;BME280;17145;49.902;8.680;'2023-07-20 02:40:41';99840;;;20;39
30343;BME280;17145;49.902;8.680;'2023-07-20 02:43:09';99840;;;20;39
30343;BME280;17145;49.902;8.680;'2023-07-20 02:45:38';99840;;;20;39
30343;BME280;17145;49.902;8.680;'2023-07-20 02:48:06';99840;;;20;39
30343;BME280;17145;49.902;8.680;'2023-07-20 02:50:34';99840;;;20;40
30343;BME280;17145;49.902;8.680;'2023-07-20 02:53:03';99850;;;20;39
30343;BME280;17145;49.902;8.680;'2023-07-20 02:55:31';99850;;;20;39
30343;BME280;17145;49.902;8.680;'2023-07-20 02:57:59';99850;;;20;40
30343;BME280;17145;49.902;8.680;'2023-07-20 03:00:27';99850;;;20;40
30343;BME280;17145;49.902;8.680;'2023-07-20 03:02:54';99850;;;20;39
30343;BME280;17145;49.902;8.680;'2023-07-20 03:05:27';99850;;;20;40
30343;BME280;17145;49.902;8.680;'2023-07-20 03:08:02';99850;;;20;40
30343;BME280;17145;49.902;8.680;'2023-07-20 03:10:38';99850;;;19;40
30343;BME280;17145;49.902;8.680;'2023-07-20 03:13:07';99860;;;20;40
30343;BME280;17145;49.902;8.680;'2023-07-20 03:15:34';99850;;;19;40
30343;BME280;17145;49.902;8.680;'2023-07-20 03:18:02';99850;;;19;41
30343;BME280;17145;49.902;8.680;'2023-07-20 03:23:18';99850;;;19;41
30343;BME280;17145;49.902;8.680;'2023-07-20 03:26:01';99850;;;19;41
30343;BME280;17145;49.902;8.680;'2023-07-20 03:28:42';99850;;;19;41
30343;BME280;17145;49.902;8.680;'2023-07-20 03:31:20';99850;;;19;42
30343;BME280;17145;49.902;8.680;'2023-07-20 03:33:49';99850;;;19;42
30343;BME280;17145;49.902;8.680;'2023-07-20 03:36:18';99860;;;19;42
30343;BME280;17145;49.902;8.680;'2023-07-20 03:38:46';99860;;;19;42
30343;BME280;17145;49.902;8.680;'2023-07-20 03:41:15';99860;;;19;42
30343;BME280;17145;49.902;8.680;'2023-07-20 03:43:43';99860;;;19;43
30343;BME280;17145;49.902;8.680;'2023-07-20 03:46:10';99860;;;18;43
30343;BME280;17145;49.902;8.680;'2023-07-20 03:48:37';99860;;;19;43
30343;BME280;17145;49.902;8.680;'2023-07-20 03:51:05';99860;;;18;43
30343;BME280;17145;49.902;8.680;'2023-07-20 03:53:32';99860;;;19;43
30343;BME280;17145;49.902;8.680;'2023-07-20 03:56:00';99860;;;18;43
30343;BME280;17145;49.902;8.680;'2023-07-20 03:58:27';99860;;;18;43
30343;BME280;17145;49.902;8.680;'2023-07-20 04:00:55';99860;;;18;43
30343;BME280;17145;49.902;8.680;'2023-07-20 04:03:22';99860;;;18;43
30343;BME280;17145;49.902;8.680;'2023-07-20 04:05:49';99860;;;18;44
30343;BME280;17145;49.902;8.680;'2023-07-20 04:08:17';99860;;;18;44
30343;BME280;17145;49.902;8.680;'2023-07-20 04:10:45';99860;;;18;44
30343;BME280;17145;49.902;8.680;'2023-07-20 04:13:13';99860;;;18;44
30343;BME280;17145;49.902;8.680;'2023-07-20 04:15:41';99860;;;18;44
30343;BME280;17145;49.902;8.680;'2023-07-20 04:18:08';99850;;;18;43
30343;BME280;17145;49.902;8.680;'2023-07-20 04:20:36';99860;;;18;44
30343;BME280;17145;49.902;8.680;'2023-07-20 04:23:03';99860;;;18;44
30343;BME280;17145;49.902;8.680;'2023-07-20 04:25:31';99860;;;18;44
30343;BME280;17145;49.902;8.680;'2023-07-20 04:27:58';99860;;;18;44
30343;BME280;17145;49.902;8.680;'2023-07-20 04:30:26';99860;;;18;44
30343;BME280;17145;49.902;8.680;'2023-07-20 04:32:53';99860;;;18;44
30343;BME280;17145;49.902;8.680;'2023-07-20 04:35:21';99860;;;18;44
30343;BME280;17145;49.902;8.680;'2023-07-20 04:37:48';99860;;;18;44
30343;BME280;17145;49.902;8.680;'2023-07-20 04:40:16';99860;;;18;44
30343;BME280;17145;49.902;8.680;'2023-07-20 04:42:43';99860;;;18;44
30343;BME280;17145;49.902;8.680;'2023-07-20 04:45:11';99860;;;18;45
30343;BME280;17145;49.902;8.680;'2023-07-20 04:47:38';99860;;;18;45
30343;BME280;17145;49.902;8.680;'2023-07-20 04:50:08';99860;;;18;44
30343;BME280;17145;49.902;8.680;'2023-07-20 04:52:35';99860;;;18;44
30343;BME280;17145;49.902;8.680;'2023-07-20 04:55:03';99860;;;18;44
30343;BME280;17145;49.902;8.680;'2023-07-20 04:57:30';99860;;;18;45
30343;BME280;17145;49.902;8.680;'2023-07-20 04:59:58';99870;;;18;44
30343;BME280;17145;49.902;8.680;'2023-07-20 05:02:25';99870;;;18;44
30343;BME280;17145;49.902;8.680;'2023-07-20 05:04:52';99870;;;18;45
30343;BME280;17145;49.902;8.680;'2023-07-20 05:07:20';99870;;;18;45
30343;BME280;17145;49.902;8.680;'2023-07-20 05:09:47';99870;;;17;45
30343;BME280;17145;49.902;8.680;'2023-07-20 05:12:15';99870;;;18;45
30343;BME280;17145;49.902;8.680;'2023-07-20 05:14:42';99870;;;18;45
30343;BME280;17145;49.902;8.680;'2023-07-20 05:17:10';99870;;;17;45
30343;BME280;17145;49.902;8.680;'2023-07-20 05:19:37';99880;;;17;46
30343;BME280;17145;49.902;8.680;'2023-07-20 05:22:04';99880;;;17;47
30343;BME280;17145;49.902;8.680;'2023-07-20 05:24:32';99880;;;17;47
30343;BME280;17145;49.902;8.680;'2023-07-20 05:26:59';99880;;;17;47
30343;BME280;17145;49.902;8.680;'2023-07-20 05:29:27';99880;;;17;48
30343;BME280;17145;49.902;8.680;'2023-07-20 05:31:54';99880;;;17;48
30343;BME280;17145;49.902;8.680;'2023-07-20 05:34:22';99880;;;17;48
30343;BME280;17145;49.902;8.680;'2023-07-20 05:36:49';99880;;;17;48
30343;BME280;17145;49.902;8.680;'2023-07-20 05:39:17';99890;;;17;48
30343;BME280;17145;49.902;8.680;'2023-07-20 05:41:44';99880;;;17;48
30343;BME280;17145;49.902;8.680;'2023-07-20 05:44:12';99880;;;17;48
30343;BME280;17145;49.902;8.680;'2023-07-20 05:46:39';99880;;;17;47
30343;BME280;17145;49.902;8.680;'2023-07-20 05:49:06';99880;;;17;47
30343;BME280;17145;49.902;8.680;'2023-07-20 05:51:34';99880;;;17;48
30343;BME280;17145;49.902;8.680;'2023-07-20 05:54:01';99890;;;17;48
30343;BME280;17145;49.902;8.680;'2023-07-20 05:56:29';99890;;;17;48
30343;BME280;17145;49.902;8.680;'2023-07-20 05:58:56';99890;;;17;48
30343;BME280;17145;49.902;8.680;'2023-07-20 06:01:24';99880;;;17;48
30343;BME280;17145;49.902;8.680;'2023-07-20 06:03:51';99880;;;17;48
30343;BME280;17145;49.902;8.680;'2023-07-20 06:06:19';99890;;;17;48
30343;BME280;17145;49.902;8.680;'2023-07-20 06:08:46';99890;;;17;48
30343;BME280;17145;49.902;8.680;'2023-07-20 06:11:14';99890;;;17;48
30343;BME280;17145;49.902;8.680;'2023-07-20 06:13:41';99890;;;17;48
30343;BME280;17145;49.902;8.680;'2023-07-20 06:16:09';99880;;;17;48
30343;BME280;17145;49.902;8.680;'2023-07-20 06:18:36';99880;;;17;48
30343;BME280;17145;49.902;8.680;'2023-07-20 06:21:03';99890;;;17;48
30343;BME280;17145;49.902;8.680;'2023-07-20 06:23:31';99880;;;17;48
30343;BME280;17145;49.902;8.680;'2023-07-20 06:25:58';99890;;;17;48
30343;BME280;17145;49.902;8.680;'2023-07-20 06:28:26';99890;;;17;48
30343;BME280;17145;49.902;8.680;'2023-07-20 06:30:53';99900;;;17;48
30343;BME280;17145;49.902;8.680;'2023-07-20 06:33:21';99900;;;17;48
30343;BME280;17145;49.902;8.680;'2023-07-20 06:35:50';99900;;;17;48
30343;BME280;17145;49.902;8.680;'2023-07-20 06:38:19';99890;;;17;47
30343;BME280;17145;49.902;8.680;'2023-07-20 06:40:48';99890;;;17;47
30343;BME280;17145;49.902;8.680;'2023-07-20 06:43:17';99890;;;17;46
30343;BME280;17145;49.902;8.680;'2023-07-20 06:45:45';99900;;;17;46
30343;BME280;17145;49.902;8.680;'2023-07-20 06:48:13';99900;;;17;46
30343;BME280;17145;49.902;8.680;'2023-07-20 06:50:41';99900;;;17;45
30343;BME280;17145;49.902;8.680;'2023-07-20 06:53:09';99900;;;17;45
30343;BME280;17145;49.902;8.680;'2023-07-20 06:55:36';99900;;;17;45
30343;BME280;17145;49.902;8.680;'2023-07-20 06:58:04';99900;;;18;45
30343;BME280;17145;49.902;8.680;'2023-07-20 07:00:33';99910;;;17;44
30343;BME280;17145;49.902;8.680;'2023-07-20 07:03:01';99910;;;17;44
30343;BME280;17145;49.902;8.680;'2023-07-20 07:05:28';99910;;;17;44
30343;BME280;17145;49.902;8.680;'2023-07-20 07:07:55';99910;;;18;44
30343;BME280;17145;49.902;8.680;'2023-07-20 07:10:24';99910;;;17;44
30343;BME280;17145;49.902;8.680;'2023-07-20 07:12:51';99910;;;18;44
30343;BME280;17145;49.902;8.680;'2023-07-20 07:15:19';99910;;;17;44
30343;BME280;17145;49.902;8.680;'2023-07-20 07:18:01';99910;;;18;44
30343;BME280;17145;49.902;8.680;'2023-07-20 07:20:28';99910;;;18;44
30343;BME280;17145;49.902;8.680;'2023-07-20 07:22:55';99910;;;18;44
30343;BME280;17145;49.902;8.680;'2023-07-20 07:25:23';99900;;;18;44
30343;BME280;17145;49.902;8.680;'2023-07-20 07:27:51';99910;;;18;43
30343;BME280;17145;49.902;8.680;'2023-07-20 07:30:19';99900;;;18;43
30343;BME280;17145;49.902;8.680;'2023-07-20 07:32:46';99910;;;18;43
30343;BME280;17145;49.902;8.680;'2023-07-20 07:35:17';99910;;;18;43
30343;BME280;17145;49.902;8.680;'2023-07-20 07:37:44';99900;;;18;43
30343;BME280;17145;49.902;8.680;'2023-07-20 07:40:12';99910;;;18;43
30343;BME280;17145;49.902;8.680;'2023-07-20 07:42:40';99910;;;18;43
30343;BME280;17145;49.902;8.680;'2023-07-20 07:45:08';99910;;;18;43
30343;BME280;17145;49.902;8.680;'2023-07-20 07:47:35';99910;;;18;43
30343;BME280;17145;49.902;8.680;'2023-07-20 07:50:03';99910;;;18;43
30343;BME280;17145;49.902;8.680;'2023-07-20 07:52:30';99920;;;18;43
30343;BME280;17145;49.902;8.680;'2023-07-20 07:54:58';99920;;;18;43
30343;BME280;17145;49.902;8.680;'2023-07-20 07:57:25';99920;;;18;43
30343;BME280;17145;49.902;8.680;'2023-07-20 07:59:53';99930;;;18;44
30343;BME280;17145;49.902;8.680;'2023-07-20 08:02:20';99930;;;18;43
30343;BME280;17145;49.902;8.680;'2023-07-20 08:04:47';99940;;;18;44
30343;BME280;17145;49.902;8.680;'2023-07-20 08:07:15';99940;;;17;44
30343;BME280;17145;49.902;8.680;'2023-07-20 08:09:42';99940;;;18;44
30343;BME280;17145;49.902;8.680;'2023-07-20 08:12:10';99930;;;18;44
30343;BME280;17145;49.902;8.680;'2023-07-20 08:14:37';99930;;;18;43
30343;BME280;17145;49.902;8.680;'2023-07-20 08:17:05';99940;;;18;43
30343;BME280;17145;49.902;8.680;'2023-07-20 08:19:33';99940;;;18;43
30343;BME280;17145;49.902;8.680;'2023-07-20 08:22:00';99940;;;18;43
30343;BME280;17145;49.902;8.680;'2023-07-20 08:24:27';99940;;;18;43
30343;BME280;17145;49.902;8.680;'2023-07-20 08:26:55';99940;;;18;43
30343;BME280;17145;49.902;8.680;'2023-07-20 08:29:22';99940;;;18;44
30343;BME280;17145;49.902;8.680;'2023-07-20 08:31:49';99940;;;18;44
30343;BME280;17145;49.902;8.680;'2023-07-20 08:34:17';99940;;;18;44
30343;BME280;17145;49.902;8.680;'2023-07-20 08:36:44';99940;;;18;44
30343;BME280;17145;49.902;8.680;'2023-07-20 08:39:12';99940;;;18;43
30343;BME280;17145;49.902;8.680;'2023-07-20 08:41:40';99940;;;19;43
30343;BME280;17145;49.902;8.680;'2023-07-20 08:44:07';99940;;;18;44
30343;BME280;17145;49.902;8.680;'2023-07-20 08:46:34';99940;;;18;44
30343;BME280;17145;49.902;8.680;'2023-07-20 08:49:02';99940;;;18;44
30343;BME280;17145;49.902;8.680;'2023-07-20 08:51:29';99940;;;19;44
30343;BME280;17145;49.902;8.680;'2023-07-20 08:53:57';99940;;;19;44
30343;BME280;17145;49.902;8.680;'2023-07-20 08:56:24';99940;;;18;45
30343;BME280;17145;49.902;8.680;'2023-07-20 08:58:52';99950;;;19;43
30343;BME280;17145;49.902;8.680;'2023-07-20 09:01:19';99950;;;19;43
30343;BME280;17145;49.902;8.680;'2023-07-20 09:03:46';99950;;;19;43
30343;BME280;17145;49.902;8.680;'2023-07-20 09:06:14';99960;;;19;43
30343;BME280;17145;49.902;8.680;'2023-07-20 09:08:41';99960;;;19;43
30343;BME280;17145;49.902;8.680;'2023-07-20 09:11:09';99960;;;19;43
30343;BME280;17145;49.902;8.680;'2023-07-20 09:13:36';99960;;;19;43
30343;BME280;17145;49.902;8.680;'2023-07-20 09:16:04';99960;;;19;43
30343;BME280;17145;49.902;8.680;'2023-07-20 09:18:32';99970;;;19;43
30343;BME280;17145;49.902;8.680;'2023-07-20 09:20:59';99970;;;19;42
30343;BME280;17145;49.902;8.680;'2023-07-20 09:23:27';99960;;;20;42
30343;BME280;17145;49.902;8.680;'2023-07-20 09:25:54';99960;;;20;42
30343;BME280;17145;49.902;8.680;'2023-07-20 09:28:21';99960;;;19;42
30343;BME280;17145;49.902;8.680;'2023-07-20 09:30:49';99960;;;19;42
30343;BME280;17145;49.902;8.680;'2023-07-20 09:33:16';99960;;;20;42
30343;BME280;17145;49.902;8.680;'2023-07-20 09:35:43';99960;;;20;42
30343;BME280;17145;49.902;8.680;'2023-07-20 09:38:11';99960;;;20;41
30343;BME280;17145;49.902;8.680;'2023-07-20 09:40:38';99960;;;20;41
30343;BME280;17145;49.902;8.680;'2023-07-20 09:43:06';99960;;;20;42
30343;BME280;17145;49.902;8.680;'2023-07-20 09:45:35';99960;;;20;42
30343;BME280;17145;49.902;8.680;'2023-07-20 09:48:03';99960;;;20;42
30343;BME280;17145;49.902;8.680;'2023-07-20 09:50:30';99960;;;20;42
30343;BME280;17145;49.902;8.680;'2023-07-20 09:52:58';99960;;;20;41
30343;BME280;17145;49.902;8.680;'2023-07-20 09:55:26';99950;;;20;41
30343;BME280;17145;49.902;8.680;'2023-07-20 09:57:53';99950;;;20;41
30343;BME280;17145;49.902;8.680;'2023-07-20 10:00:20';99950;;;20;41
30343;BME280;17145;49.902;8.680;'2023-07-20 10:02:49';99960;;;20;41
30343;BME280;17145;49.902;8.680;'2023-07-20 10:05:17';99960;;;20;41
30343;BME280;17145;49.902;8.680;'2023-07-20 10:07:44';99960;;;20;41
30343;BME280;17145;49.902;8.680;'2023-07-20 10:10:12';99950;;;20;41
30343;BME280;17145;49.902;8.680;'2023-07-20 10:12:39';99960;;;20;41
30343;BME280;17145;49.902;8.680;'2023-07-20 10:15:07';99960;;;20;41
30343;BME280;17145;49.902;8.680;'2023-07-20 10:17:35';99960;;;20;41
30343;BME280;17145;49.902;8.680;'2023-07-20 10:20:02';99960;;;20;40
30343;BME280;17145;49.902;8.680;'2023-07-20 10:22:30';99960;;;20;40
30343;BME280;17145;49.902;8.680;'2023-07-20 10:24:57';99950;;;21;40
30343;BME280;17145;49.902;8.680;'2023-07-20 10:27:25';99960;;;21;40
30343;BME280;17145;49.902;8.680;'2023-07-20 10:29:53';99950;;;21;40
30343;BME280;17145;49.902;8.680;'2023-07-20 10:32:20';99960;;;21;39
30343;BME280;17145;49.902;8.680;'2023-07-20 10:34:48';99950;;;21;39
30343;BME280;17145;49.902;8.680;'2023-07-20 10:37:15';99950;;;21;38
30343;BME280;17145;49.902;8.680;'2023-07-20 10:39:43';99950;;;21;39
30343;BME280;17145;49.902;8.680;'2023-07-20 10:42:13';99950;;;21;39
30343;BME280;17145;49.902;8.680;'2023-07-20 10:44:42';99950;;;21;37
30343;BME280;17145;49.902;8.680;'2023-07-20 10:47:12';99950;;;21;37
30343;BME280;17145;49.902;8.680;'2023-07-20 10:49:40';99950;;;21;38
30343;BME280;17145;49.902;8.680;'2023-07-20 10:52:08';99950;;;21;38
30343;BME280;17145;49.902;8.680;'2023-07-20 10:54:36';99950;;;22;37
30343;BME280;17145;49.902;8.680;'2023-07-20 10:57:05';99950;;;22;38
30343;BME280;17145;49.902;8.680;'2023-07-20 10:59:36';99950;;;22;37
30343;BME280;17145;49.902;8.680;'2023-07-20 11:02:05';99950;;;22;36
30343;BME280;17145;49.902;8.680;'2023-07-20 11:04:33';99950;;;21;36
30343;BME280;17145;49.902;8.680;'2023-07-20 11:07:01';99940;;;22;36
30343;BME280;17145;49.902;8.680;'2023-07-20 11:09:29';99940;;;22;37
30343;BME280;17145;49.902;8.680;'2023-07-20 11:11:57';99940;;;22;37
30343;BME280;17145;49.902;8.680;'2023-07-20 11:14:24';99930;;;22;36
30343;BME280;17145;49.902;8.680;'2023-07-20 11:16:54';99940;;;23;36
30343;BME280;17145;49.902;8.680;'2023-07-20 11:19:21';99940;;;22;35
30343;BME280;17145;49.902;8.680;'2023-07-20 11:21:50';99930;;;22;34
30343;BME280;17145;49.902;8.680;'2023-07-20 11:24:19';99940;;;22;35
30343;BME280;17145;49.902;8.680;'2023-07-20 11:26:48';99940;;;22;36
30343;BME280;17145;49.902;8.680;'2023-07-20 11:31:56';99940;;;22;35
30343;BME280;17145;49.902;8.680;'2023-07-20 11:34:23';99940;;;22;36
30343;BME280;17145;49.902;8.680;'2023-07-20 11:36:51';99940;;;22;35
30343;BME280;17145;49.902;8.680;'2023-07-20 11:39:19';99940;;;22;36
30343;BME280;17145;49.902;8.680;'2023-07-20 11:41:47';99940;;;22;37
30343;BME280;17145;49.902;8.680;'2023-07-20 11:44:15';99940;;;22;35
30343;BME280;17145;49.902;8.680;'2023-07-20 11:46:44';99930;;;22;35
30343;BME280;17145;49.902;8.680;'2023-07-20 11:49:11';99930;;;22;32
30343;BME280;17145;49.902;8.680;'2023-07-20 11:51:39';99920;;;22;34
30343;BME280;17145;49.902;8.680;'2023-07-20 11:54:07';99920;;;23;34
30343;BME280;17145;49.902;8.680;'2023-07-20 11:56:36';99930;;;23;33
30343;BME280;17145;49.902;8.680;'2023-07-20 11:59:04';99920;;;23;33
30343;BME280;17145;49.902;8.680;'2023-07-20 12:01:34';99920;;;23;32
30343;BME280;17145;49.902;8.680;'2023-07-20 12:04:03';99910;;;23;33
30343;BME280;17145;49.902;8.680;'2023-07-20 12:06:34';99910;;;23;32
30343;BME280;17145;49.902;8.680;'2023-07-20 12:09:03';99910;;;24;32
30343;BME280;17145;49.902;8.680;'2023-07-20 12:11:35';99900;;;24;31
30343;BME280;17145;49.902;8.680;'2023-07-20 12:14:04';99900;;;24;30
30343;BME280;17145;49.902;8.680;'2023-07-20 12:16:35';99900;;;24;31
30343;BME280;17145;49.902;8.680;'2023-07-20 12:19:07';99890;;;24;30
30343;BME280;17145;49.902;8.680;'2023-07-20 12:21:42';99900;;;24;31
30343;BME280;17145;49.902;8.680;'2023-07-20 12:24:11';99900;;;24;29
30343;BME280;17145;49.902;8.680;'2023-07-20 12:26:38';99890;;;24;30
30343;BME280;17145;49.902;8.680;'2023-07-20 12:29:07';99890;;;24;30
30343;BME280;17145;49.902;8.680;'2023-07-20 12:31:37';99890;;;24;30
30343;BME280;17145;49.902;8.680;'2023-07-20 12:34:04';99890;;;23;31
30343;BME280;17145;49.902;8.680;'2023-07-20 12:36:32';99890;;;23;31
30343;BME280;17145;49.902;8.680;'2023-07-20 12:38:59';99880;;;23;31
30343;BME280;17145;49.902;8.680;'2023-07-20 12:41:29';99880;;;23;32
30343;BME280;17145;49.902;8.680;'2023-07-20 12:46:40';99890;;;23;32
30343;BME280;17145;49.902;8.680;'2023-07-20 12:49:08';99890;;;23;32
30343;BME280;17145;49.902;8.680;'2023-07-20 12:51:40';99880;;;23;32
30343;BME280;17145;49.902;8.680;'2023-07-20 12:54:14';99880;;;23;33
30343;BME280;17145;49.902;8.680;'2023-07-20 12:56:42';99880;;;23;32
30343;BME280;17145;49.902;8.680;'2023-07-20 12:59:18';99890;;;23;32
30343;BME280;17145;49.902;8.680;'2023-07-20 13:01:46';99880;;;23;32
30343;BME280;17145;49.902;8.680;'2023-07-20 13:04:14';99890;;;23;32
30343;BME280;17145;49.902;8.680;'2023-07-20 13:06:43';99890;;;23;31
30343;BME280;17145;49.902;8.680;'2023-07-20 13:09:12';99880;;;23;31
30343;BME280;17145;49.902;8.680;'2023-07-20 13:11:40';99880;;;23;31
30343;BME280;17145;49.902;8.680;'2023-07-20 13:14:09';99880;;;23;32
30343;BME280;17145;49.902;8.680;'2023-07-20 13:16:39';99880;;;23;32
30343;BME280;17145;49.902;8.680;'2023-07-20 13:19:16';99880;;;23;32
30343;BME280;17145;49.902;8.680;'2023-07-20 13:21:44';99870;;;23;32
30343;BME280;17145;49.902;8.680;'2023-07-20 13:24:12';99860;;;24;33
30343;BME280;17145;49.902;8.680;'2023-07-20 13:26:41';99860;;;24;31
30343;BME280;17145;49.902;8.680;'2023-07-20 13:29:09';99860;;;24;31
30343;BME280;17145;49.902;8.680;'2023-07-20 13:31:37';99860;;;24;30
30343;BME280;17145;49.902;8.680;'2023-07-20 13:34:05';99850;;;24;31
30343;BME280;17145;49.902;8.680;'2023-07-20 13:36:34';99850;;;24;30
30343;BME280;17145;49.902;8.680;'2023-07-20 13:39:02';99860;;;24;31
30343;BME280;17145;49.902;8.680;'2023-07-20 13:41:29';99860;;;24;30
30343;BME280;17145;49.902;8.680;'2023-07-20 13:43:57';99860;;;25;31
30343;BME280;17145;49.902;8.680;'2023-07-20 13:46:24';99850;;;25;30
30343;BME280;17145;49.902;8.680;'2023-07-20 13:48:57';99850;;;25;29
30343;BME280;17145;49.902;8.680;'2023-07-20 13:51:26';99850;;;25;28
30343;BME280;17145;49.902;8.680;'2023-07-20 13:53:54';99850;;;25;28
30343;BME280;17145;49.902;8.680;'2023-07-20 13:56:22';99840;;;26;27
30343;BME280;17145;49.902;8.680;'2023-07-20 13:58:50';99840;;;26;27
30343;BME280;17145;49.902;8.680;'2023-07-20 14:01:18';99830;;;26;26
30343;BME280;17145;49.902;8.680;'2023-07-20 14:03:45';99830;;;26;26
30343;BME280;17145;49.902;8.680;'2023-07-20 14:06:13';99830;;;26;27
30343;BME280;17145;49.902;8.680;'2023-07-20 14:08:42';99830;;;26;26
30343;BME280;17145;49.902;8.680;'2023-07-20 14:11:09';99830;;;26;27
30343;BME280;17145;49.902;8.680;'2023-07-20 14:13:38';99820;;;27;27
30343;BME280;17145;49.902;8.680;'2023-07-20 14:16:10';99820;;;26;26
30343;BME280;17145;49.902;8.680;'2023-07-20 14:18:38';99820;;;26;26
30343;BME280;17145;49.902;8.680;'2023-07-20 14:21:06';99820;;;26;26
30343;BME280;17145;49.902;8.680;'2023-07-20 14:23:39';99820;;;26;27
30343;BME280;17145;49.902;8.680;'2023-07-20 14:26:07';99820;;;26;27
30343;BME280;17145;49.902;8.680;'2023-07-20 14:28:39';99820;;;26;27
30343;BME280;17145;49.902;8.680;'2023-07-20 14:31:07';99810;;;26;27
30343;BME280;17145;49.902;8.680;'2023-07-20 14:33:34';99810;;;26;27
30343;BME280;17145;49.902;8.680;'2023-07-20 14:36:02';99800;;;27;26
30343;BME280;17145;49.902;8.680;'2023-07-20 14:38:30';99800;;;27;26
30343;BME280;17145;49.902;8.680;'2023-07-20 14:40:58';99800;;;27;24
30343;BME280;17145;49.902;8.680;'2023-07-20 14:43:25';99800;;;27;25
30343;BME280;17145;49.902;8.680;'2023-07-20 14:45:53';99800;;;27;24
30343;BME280;17145;49.902;8.680;'2023-07-20 14:48:21';99790;;;28;24
30343;BME280;17145;49.902;8.680;'2023-07-20 14:50:48';99800;;;27;24
30343;BME280;17145;49.902;8.680;'2023-07-20 14:53:16';99800;;;27;25
30343;BME280;17145;49.902;8.680;'2023-07-20 14:55:44';99800;;;27;25
30343;BME280;17145;49.902;8.680;'2023-07-20 14:58:12';99800;;;27;26
30343;BME280;17145;49.902;8.680;'2023-07-20 15:00:39';99800;;;26;26
30343;BME280;17145;49.902;8.680;'2023-07-20 15:03:06';99800;;;26;26
30343;BME280;17145;49.902;8.680;'2023-07-20 15:05:34';99800;;;25;28
30343;BME280;17145;49.902;8.680;'2023-07-20 15:08:02';99790;;;25;28
30343;BME280;17145;49.902;8.680;'2023-07-20 15:10:30';99790;;;25;28
30343;BME280;17145;49.902;8.680;'2023-07-20 15:12:57';99780;;;25;28
30343;BME280;17145;49.902;8.680;'2023-07-20 15:15:30';99780;;;25;29
30343;BME280;17145;49.902;8.680;'2023-07-20 15:17:58';99790;;;25;29
30343;BME280;17145;49.902;8.680;'2023-07-20 15:20:26';99780;;;25;29
30343;BME280;17145;49.902;8.680;'2023-07-20 15:22:54';99780;;;25;29
30343;BME280;17145;49.902;8.680;'2023-07-20 15:25:21';99780;;;25;30
30343;BME280;17145;49.902;8.680;'2023-07-20 15:27:49';99780;;;25;29
30343;BME280;17145;49.902;8.680;'2023-07-20 15:30:17';99780;;;25;29
30343;BME280;17145;49.902;8.680;'2023-07-20 15:32:44';99780;;;25;29
30343;BME280;17145;49.902;8.680;'2023-07-20 15:35:12';99780;;;25;28
30343;BME280;17145;49.902;8.680;'2023-07-20 15:37:40';99780;;;25;28
30343;BME280;17145;49.902;8.680;'2023-07-20 15:40:08';99780;;;25;28
30343;BME280;17145;49.902;8.680;'2023-07-20 15:42:36';99770;;;25;28
30343;BME280;17145;49.902;8.680;'2023-07-20 15:45:05';99770;;;25;29
30343;BME280;17145;49.902;8.680;'2023-07-20 15:47:33';99770;;;25;29
30343;BME280;17145;49.902;8.680;'2023-07-20 15:50:01';99760;;;25;27
30343;BME280;17145;49.902;8.680;'2023-07-20 15:52:29';99760;;;25;28
30343;BME280;17145;49.902;8.680;'2023-07-20 15:54:56';99760;;;25;27
30343;BME280;17145;49.902;8.680;'2023-07-20 15:57:24';99760;;;25;27
30343;BME280;17145;49.902;8.680;'2023-07-20 15:59:52';99760;;;25;27
30343;BME280;17145;49.902;8.680;'2023-07-20 16:02:19';99750;;;25;27
30343;BME280;17145;49.902;8.680;'2023-07-20 16:04:46';99760;;;25;26
30343;BME280;17145;49.902;8.680;'2023-07-20 16:07:14';99750;;;26;27
30343;BME280;17145;49.902;8.680;'2023-07-20 16:09:42';99760;;;26;26
30343;BME280;17145;49.902;8.680;'2023-07-20 16:12:09';99750;;;27;25
30343;BME280;17145;49.902;8.680;'2023-07-20 16:14:37';99740;;;28;25
30343;BME280;17145;49.902;8.680;'2023-07-20 16:17:05';99740;;;28;23
30343;BME280;17145;49.902;8.680;'2023-07-20 16:19:32';99740;;;29;23
30343;BME280;17145;49.902;8.680;'2023-07-20 16:21:59';99740;;;29;23
30343;BME280;17145;49.902;8.680;'2023-07-20 16:24:27';99730;;;29;22
30343;BME280;17145;49.902;8.680;'2023-07-20 16:26:54';99720;;;29;22
30343;BME280;17145;49.902;8.680;'2023-07-20 16:29:21';99720;;;29;22
30343;BME280;17145;49.902;8.680;'2023-07-20 16:31:49';99720;;;30;22